Terminal Aerodrome Forecast
Issued by NWS Grand Forks, ND

Home | Current Version | Previous Version | Text Only | Print | Product List | Glossary On
Versions: 1 2 3 4 5 6 7 8 9 10 11 12 13
000
FTUS43 KFGF 200521 AAA
TAFFAR
TAF AMD
KFAR 200521Z 2005/2106 16015G25KT P6SM BKN200
     FM201100 16014G24KT P6SM VCSH OVC090
     FM201400 17013KT P6SM OVC040
      TEMPO 2014/2017 3SM -SHRA BR OVC015
     FM201700 23009KT P6SM OVC015
     FM202100 27013G21KT P6SM SCT080=

USA.gov is the U.S. government's official web portal to all federal, state and local government web resources and services.